sensor_id;sensor_type;location;lat;lon;timestamp;temperature;humidity
70170;DHT22;57543;45.442;9.212;2022-08-19T00:00:26;22.80;72.61
70170;DHT22;57543;45.442;9.212;2022-08-19T00:03:30;22.87;72.25
70170;DHT22;57543;45.442;9.212;2022-08-19T00:06:36;22.97;71.75
70170;DHT22;57543;45.442;9.212;2022-08-19T00:09:39;23.01;71.59
70170;DHT22;57543;45.442;9.212;2022-08-19T00:12:43;23.00;72.32
70170;DHT22;57543;45.442;9.212;2022-08-19T00:15:47;22.97;72.15
70170;DHT22;57543;45.442;9.212;2022-08-19T00:18:51;22.91;72.40
70170;DHT22;57543;45.442;9.212;2022-08-19T00:21:55;22.98;72.06
70170;DHT22;57543;45.442;9.212;2022-08-19T00:24:59;23.00;71.78
70170;DHT22;57543;45.442;9.212;2022-08-19T00:28:03;23.00;71.71
70170;DHT22;57543;45.442;9.212;2022-08-19T00:31:08;23.06;71.83
70170;DHT22;57543;45.442;9.212;2022-08-19T00:34:13;23.01;71.56
70170;DHT22;57543;45.442;9.212;2022-08-19T00:37:17;23.03;71.10
70170;DHT22;57543;45.442;9.212;2022-08-19T00:40:21;23.07;71.69
70170;DHT22;57543;45.442;9.212;2022-08-19T00:43:27;23.03;72.41
70170;DHT22;57543;45.442;9.212;2022-08-19T00:46:31;23.12;71.68
70170;DHT22;57543;45.442;9.212;2022-08-19T00:49:41;23.22;70.90
70170;DHT22;57543;45.442;9.212;2022-08-19T00:52:49;23.25;70.40
70170;DHT22;57543;45.442;9.212;2022-08-19T00:55:55;23.34;69.89
70170;DHT22;57543;45.442;9.212;2022-08-19T00:59:01;23.24;70.10
70170;DHT22;57543;45.442;9.212;2022-08-19T01:02:05;23.15;70.66
70170;DHT22;57543;45.442;9.212;2022-08-19T01:05:13;23.12;70.36
70170;DHT22;57543;45.442;9.212;2022-08-19T01:08:19;23.08;70.58
70170;DHT22;57543;45.442;9.212;2022-08-19T01:11:23;23.14;70.32
70170;DHT22;57543;45.442;9.212;2022-08-19T01:14:26;23.12;70.05
70170;DHT22;57543;45.442;9.212;2022-08-19T01:17:30;23.07;70.22
70170;DHT22;57543;45.442;9.212;2022-08-19T01:20:34;23.01;70.35
70170;DHT22;57543;45.442;9.212;2022-08-19T01:23:38;23.00;70.33
70170;DHT22;57543;45.442;9.212;2022-08-19T01:26:48;22.94;70.63
70170;DHT22;57543;45.442;9.212;2022-08-19T01:29:51;22.87;70.88
70170;DHT22;57543;45.442;9.212;2022-08-19T01:32:55;22.87;71.14
70170;DHT22;57543;45.442;9.212;2022-08-19T01:36:07;22.93;70.53
70170;DHT22;57543;45.442;9.212;2022-08-19T01:39:14;22.90;70.67
70170;DHT22;57543;45.442;9.212;2022-08-19T01:42:18;22.83;71.00
70170;DHT22;57543;45.442;9.212;2022-08-19T01:45:25;22.93;71.14
70170;DHT22;57543;45.442;9.212;2022-08-19T01:48:38;23.00;70.55
70170;DHT22;57543;45.442;9.212;2022-08-19T01:51:42;23.06;70.19
70170;DHT22;57543;45.442;9.212;2022-08-19T01:54:46;22.83;72.13
70170;DHT22;57543;45.442;9.212;2022-08-19T01:57:52;22.70;72.78
70170;DHT22;57543;45.442;9.212;2022-08-19T02:00:57;22.72;72.67
70170;DHT22;57543;45.442;9.212;2022-08-19T02:04:00;22.84;72.41
70170;DHT22;57543;45.442;9.212;2022-08-19T02:07:05;22.89;72.52
70170;DHT22;57543;45.442;9.212;2022-08-19T02:10:12;22.90;72.43
70170;DHT22;57543;45.442;9.212;2022-08-19T02:13:17;22.83;72.64
70170;DHT22;57543;45.442;9.212;2022-08-19T02:16:21;22.86;72.57
70170;DHT22;57543;45.442;9.212;2022-08-19T02:19:25;22.89;72.23
70170;DHT22;57543;45.442;9.212;2022-08-19T02:22:29;22.91;72.27
70170;DHT22;57543;45.442;9.212;2022-08-19T02:25:33;22.83;72.61
70170;DHT22;57543;45.442;9.212;2022-08-19T02:28:37;22.84;72.77
70170;DHT22;57543;45.442;9.212;2022-08-19T02:31:40;22.83;72.91
70170;DHT22;57543;45.442;9.212;2022-08-19T02:34:45;22.87;72.91
70170;DHT22;57543;45.442;9.212;2022-08-19T02:37:48;22.89;72.87
70170;DHT22;57543;45.442;9.212;2022-08-19T02:41:15;22.86;72.90
70170;DHT22;57543;45.442;9.212;2022-08-19T02:44:18;22.84;73.01
70170;DHT22;57543;45.442;9.212;2022-08-19T02:47:22;22.81;73.08
70170;DHT22;57543;45.442;9.212;2022-08-19T02:50:26;22.77;73.24
70170;DHT22;57543;45.442;9.212;2022-08-19T02:53:29;22.72;73.48
70170;DHT22;57543;45.442;9.212;2022-08-19T02:56:35;22.60;74.09
70170;DHT22;57543;45.442;9.212;2022-08-19T02:59:38;22.62;73.97
70170;DHT22;57543;45.442;9.212;2022-08-19T03:02:43;22.62;73.85
70170;DHT22;57543;45.442;9.212;2022-08-19T03:05:47;22.52;73.95
70170;DHT22;57543;45.442;9.212;2022-08-19T03:08:51;22.41;74.37
70170;DHT22;57543;45.442;9.212;2022-08-19T03:11:55;22.45;74.04
70170;DHT22;57543;45.442;9.212;2022-08-19T03:14:59;22.51;73.92
70170;DHT22;57543;45.442;9.212;2022-08-19T03:18:04;22.42;74.63
70170;DHT22;57543;45.442;9.212;2022-08-19T03:21:08;22.39;74.82
70170;DHT22;57543;45.442;9.212;2022-08-19T03:24:13;22.42;74.17
70170;DHT22;57543;45.442;9.212;2022-08-19T03:27:17;22.51;73.75
70170;DHT22;57543;45.442;9.212;2022-08-19T03:30:20;22.60;73.34
70170;DHT22;57543;45.442;9.212;2022-08-19T03:33:25;22.63;73.10
70170;DHT22;57543;45.442;9.212;2022-08-19T03:36:29;22.67;73.11
70170;DHT22;57543;45.442;9.212;2022-08-19T03:39:33;22.66;73.25
70170;DHT22;57543;45.442;9.212;2022-08-19T03:42:38;22.66;73.29
70170;DHT22;57543;45.442;9.212;2022-08-19T03:45:45;22.62;73.24
70170;DHT22;57543;45.442;9.212;2022-08-19T03:48:51;22.57;73.52
70170;DHT22;57543;45.442;9.212;2022-08-19T03:51:58;22.64;73.13
70170;DHT22;57543;45.442;9.212;2022-08-19T03:55:03;22.70;72.96
70170;DHT22;57543;45.442;9.212;2022-08-19T03:58:07;22.72;72.91
70170;DHT22;57543;45.442;9.212;2022-08-19T04:01:16;22.62;73.30
70170;DHT22;57543;45.442;9.212;2022-08-19T04:04:19;22.45;73.47
70170;DHT22;57543;45.442;9.212;2022-08-19T04:07:23;22.41;73.60
70170;DHT22;57543;45.442;9.212;2022-08-19T04:10:28;22.41;73.65
70170;DHT22;57543;45.442;9.212;2022-08-19T04:13:31;22.44;73.56
70170;DHT22;57543;45.442;9.212;2022-08-19T04:16:35;22.38;74.44
70170;DHT22;57543;45.442;9.212;2022-08-19T04:19:38;22.46;74.13
70170;DHT22;57543;45.442;9.212;2022-08-19T04:22:42;22.45;74.56
70170;DHT22;57543;45.442;9.212;2022-08-19T04:25:46;22.39;74.74
70170;DHT22;57543;45.442;9.212;2022-08-19T04:28:50;22.02;76.13
70170;DHT22;57543;45.442;9.212;2022-08-19T04:31:55;22.04;76.46
70170;DHT22;57543;45.442;9.212;2022-08-19T04:35:00;21.93;76.64
70170;DHT22;57543;45.442;9.212;2022-08-19T04:38:03;21.77;77.25
70170;DHT22;57543;45.442;9.212;2022-08-19T04:41:07;21.79;77.36
70170;DHT22;57543;45.442;9.212;2022-08-19T04:44:43;21.86;76.92
70170;DHT22;57543;45.442;9.212;2022-08-19T04:47:47;21.82;77.25
70170;DHT22;57543;45.442;9.212;2022-08-19T04:50:54;21.73;77.42
70170;DHT22;57543;45.442;9.212;2022-08-19T04:54:02;21.84;78.29
70170;DHT22;57543;45.442;9.212;2022-08-19T04:57:08;21.93;78.42
70170;DHT22;57543;45.442;9.212;2022-08-19T05:00:13;21.79;78.97
70170;DHT22;57543;45.442;9.212;2022-08-19T05:03:17;21.66;79.08
70170;DHT22;57543;45.442;9.212;2022-08-19T05:06:21;21.59;79.06
70170;DHT22;57543;45.442;9.212;2022-08-19T05:09:25;21.57;79.03
70170;DHT22;57543;45.442;9.212;2022-08-19T05:12:28;21.43;79.56
70170;DHT22;57543;45.442;9.212;2022-08-19T05:15:32;21.48;79.92
70170;DHT22;57543;45.442;9.212;2022-08-19T05:18:36;21.46;80.06
70170;DHT22;57543;45.442;9.212;2022-08-19T05:22:00;21.43;80.29
70170;DHT22;57543;45.442;9.212;2022-08-19T05:25:22;21.20;81.45
70170;DHT22;57543;45.442;9.212;2022-08-19T05:28:28;20.98;82.47
70170;DHT22;57543;45.442;9.212;2022-08-19T05:31:31;21.11;82.00
70170;DHT22;57543;45.442;9.212;2022-08-19T05:34:36;21.29;81.16
70170;DHT22;57543;45.442;9.212;2022-08-19T05:37:41;21.46;80.46
70170;DHT22;57543;45.442;9.212;2022-08-19T05:40:45;21.37;81.08
70170;DHT22;57543;45.442;9.212;2022-08-19T05:43:52;21.41;80.90
70170;DHT22;57543;45.442;9.212;2022-08-19T05:46:57;21.56;80.55
70170;DHT22;57543;45.442;9.212;2022-08-19T05:50:01;21.66;80.18
70170;DHT22;57543;45.442;9.212;2022-08-19T05:53:05;21.74;79.82
70170;DHT22;57543;45.442;9.212;2022-08-19T05:56:13;21.80;79.88
70170;DHT22;57543;45.442;9.212;2022-08-19T05:59:19;21.72;80.37
70170;DHT22;57543;45.442;9.212;2022-08-19T06:02:26;21.72;80.05
70170;DHT22;57543;45.442;9.212;2022-08-19T06:05:30;21.72;79.98
70170;DHT22;57543;45.442;9.212;2022-08-19T06:08:35;21.59;81.34
70170;DHT22;57543;45.442;9.212;2022-08-19T06:11:46;21.53;81.48
70170;DHT22;57543;45.442;9.212;2022-08-19T06:14:50;21.55;81.61
70170;DHT22;57543;45.442;9.212;2022-08-19T06:17:56;21.70;81.18
70170;DHT22;57543;45.442;9.212;2022-08-19T06:21:00;21.73;80.60
70170;DHT22;57543;45.442;9.212;2022-08-19T06:24:10;21.83;80.15
70170;DHT22;57543;45.442;9.212;2022-08-19T06:27:13;21.82;78.51
70170;DHT22;57543;45.442;9.212;2022-08-19T06:30:17;21.80;78.27
70170;DHT22;57543;45.442;9.212;2022-08-19T06:33:21;21.87;78.15
70170;DHT22;57543;45.442;9.212;2022-08-19T06:36:27;21.97;78.19
70170;DHT22;57543;45.442;9.212;2022-08-19T06:39:36;21.67;79.80
70170;DHT22;57543;45.442;9.212;2022-08-19T06:42:41;21.56;80.26
70170;DHT22;57543;45.442;9.212;2022-08-19T06:45:45;21.66;80.20
70170;DHT22;57543;45.442;9.212;2022-08-19T06:48:49;21.82;80.07
70170;DHT22;57543;45.442;9.212;2022-08-19T06:51:53;21.91;79.85
70170;DHT22;57543;45.442;9.212;2022-08-19T06:55:01;22.04;79.18
70170;DHT22;57543;45.442;9.212;2022-08-19T06:58:05;22.25;78.57
70170;DHT22;57543;45.442;9.212;2022-08-19T07:01:09;22.24;78.77
70170;DHT22;57543;45.442;9.212;2022-08-19T07:04:15;21.79;80.48
70170;DHT22;57543;45.442;9.212;2022-08-19T07:07:20;21.65;81.03
70170;DHT22;57543;45.442;9.212;2022-08-19T07:10:24;21.72;80.80
70170;DHT22;57543;45.442;9.212;2022-08-19T07:13:28;21.79;80.87
70170;DHT22;57543;45.442;9.212;2022-08-19T07:16:31;22.05;79.58
70170;DHT22;57543;45.442;9.212;2022-08-19T07:19:36;22.24;78.16
70170;DHT22;57543;45.442;9.212;2022-08-19T07:22:40;22.41;76.83
70170;DHT22;57543;45.442;9.212;2022-08-19T07:25:44;22.64;76.44
70170;DHT22;57543;45.442;9.212;2022-08-19T07:28:48;22.86;75.66
70170;DHT22;57543;45.442;9.212;2022-08-19T07:31:53;22.96;76.03
70170;DHT22;57543;45.442;9.212;2022-08-19T07:34:59;22.91;75.48
70170;DHT22;57543;45.442;9.212;2022-08-19T07:38:03;22.97;75.75
70170;DHT22;57543;45.442;9.212;2022-08-19T07:41:13;22.77;75.89
70170;DHT22;57543;45.442;9.212;2022-08-19T07:44:18;22.64;75.45
70170;DHT22;57543;45.442;9.212;2022-08-19T07:47:23;22.59;74.99
70170;DHT22;57543;45.442;9.212;2022-08-19T07:50:27;22.27;76.24
70170;DHT22;57543;45.442;9.212;2022-08-19T07:53:31;22.07;76.47
70170;DHT22;57543;45.442;9.212;2022-08-19T07:56:35;22.01;76.67
70170;DHT22;57543;45.442;9.212;2022-08-19T07:59:39;22.00;76.99
70170;DHT22;57543;45.442;9.212;2022-08-19T08:02:43;22.19;76.90
70170;DHT22;57543;45.442;9.212;2022-08-19T08:05:48;22.18;76.13
70170;DHT22;57543;45.442;9.212;2022-08-19T08:09:11;22.11;76.52
70170;DHT22;57543;45.442;9.212;2022-08-19T08:12:19;21.89;77.13
70170;DHT22;57543;45.442;9.212;2022-08-19T08:15:23;21.84;77.06
70170;DHT22;57543;45.442;9.212;2022-08-19T08:18:26;21.67;77.95
70170;DHT22;57543;45.442;9.212;2022-08-19T08:21:30;21.89;76.06
70170;DHT22;57543;45.442;9.212;2022-08-19T08:24:34;21.76;77.19
70170;DHT22;57543;45.442;9.212;2022-08-19T08:27:41;21.90;76.96
70170;DHT22;57543;45.442;9.212;2022-08-19T08:30:47;22.17;76.24
70170;DHT22;57543;45.442;9.212;2022-08-19T08:33:51;22.56;75.01
70170;DHT22;57543;45.442;9.212;2022-08-19T08:36:55;22.86;72.76
70170;DHT22;57543;45.442;9.212;2022-08-19T08:40:16;23.22;72.11
70170;DHT22;57543;45.442;9.212;2022-08-19T08:43:35;23.56;71.87
70170;DHT22;57543;45.442;9.212;2022-08-19T08:46:52;23.60;70.90
70170;DHT22;57543;45.442;9.212;2022-08-19T08:50:10;23.62;70.07
70170;DHT22;57543;45.442;9.212;2022-08-19T08:53:19;23.19;71.47
70170;DHT22;57543;45.442;9.212;2022-08-19T08:56:23;23.53;69.94
70170;DHT22;57543;45.442;9.212;2022-08-19T08:59:31;23.41;69.58
70170;DHT22;57543;45.442;9.212;2022-08-19T09:02:56;23.10;70.20
70170;DHT22;57543;45.442;9.212;2022-08-19T09:06:54;23.70;68.97
70170;DHT22;57543;45.442;9.212;2022-08-19T09:09:40;24.11;68.02
70170;DHT22;57543;45.442;9.212;2022-08-19T09:13:08;24.73;67.33
70170;DHT22;57543;45.442;9.212;2022-08-19T09:16:19;24.83;65.61
70170;DHT22;57543;45.442;9.212;2022-08-19T09:19:24;25.08;64.89
70170;DHT22;57543;45.442;9.212;2022-08-19T09:22:27;25.41;64.73
70170;DHT22;57543;45.442;9.212;2022-08-19T09:25:31;25.27;64.56
70170;DHT22;57543;45.442;9.212;2022-08-19T09:28:37;24.67;63.47
70170;DHT22;57543;45.442;9.212;2022-08-19T09:31:41;23.98;66.18
70170;DHT22;57543;45.442;9.212;2022-08-19T09:34:45;24.07;66.81
70170;DHT22;57543;45.442;9.212;2022-08-19T09:37:49;23.97;67.38
70170;DHT22;57543;45.442;9.212;2022-08-19T09:40:53;24.05;65.81
70170;DHT22;57543;45.442;9.212;2022-08-19T09:43:57;24.65;64.24
70170;DHT22;57543;45.442;9.212;2022-08-19T09:47:01;24.97;63.10
70170;DHT22;57543;45.442;9.212;2022-08-19T09:50:06;25.35;62.98
70170;DHT22;57543;45.442;9.212;2022-08-19T09:53:10;25.56;60.80
70170;DHT22;57543;45.442;9.212;2022-08-19T09:56:14;25.12;59.75
70170;DHT22;57543;45.442;9.212;2022-08-19T09:59:17;24.88;60.60
70170;DHT22;57543;45.442;9.212;2022-08-19T10:02:21;25.11;59.85
70170;DHT22;57543;45.442;9.212;2022-08-19T10:05:24;25.12;57.61
70170;DHT22;57543;45.442;9.212;2022-08-19T10:08:47;25.55;57.31
70170;DHT22;57543;45.442;9.212;2022-08-19T10:11:51;25.76;55.21
70170;DHT22;57543;45.442;9.212;2022-08-19T10:14:54;25.87;53.57
70170;DHT22;57543;45.442;9.212;2022-08-19T10:17:59;25.94;54.12
70170;DHT22;57543;45.442;9.212;2022-08-19T10:21:07;26.24;54.42
70170;DHT22;57543;45.442;9.212;2022-08-19T10:24:11;26.56;54.85
70170;DHT22;57543;45.442;9.212;2022-08-19T10:27:15;26.73;54.56
70170;DHT22;57543;45.442;9.212;2022-08-19T10:30:19;26.37;52.96
70170;DHT22;57543;45.442;9.212;2022-08-19T10:33:23;26.07;54.83
70170;DHT22;57543;45.442;9.212;2022-08-19T10:36:33;26.20;54.96
70170;DHT22;57543;45.442;9.212;2022-08-19T10:39:38;26.42;54.48
70170;DHT22;57543;45.442;9.212;2022-08-19T10:42:41;26.53;53.43
70170;DHT22;57543;45.442;9.212;2022-08-19T10:45:52;26.76;53.24
70170;DHT22;57543;45.442;9.212;2022-08-19T10:48:55;26.49;53.52
70170;DHT22;57543;45.442;9.212;2022-08-19T10:51:59;27.00;53.41
70170;DHT22;57543;45.442;9.212;2022-08-19T10:55:23;27.06;52.25
70170;DHT22;57543;45.442;9.212;2022-08-19T10:58:45;26.52;53.23
70170;DHT22;57543;45.442;9.212;2022-08-19T11:01:50;26.68;52.90
70170;DHT22;57543;45.442;9.212;2022-08-19T11:04:54;26.41;51.44
70170;DHT22;57543;45.442;9.212;2022-08-19T11:07:58;26.78;50.21
70170;DHT22;57543;45.442;9.212;2022-08-19T11:11:02;26.14;52.32
70170;DHT22;57543;45.442;9.212;2022-08-19T11:14:12;25.89;52.50
70170;DHT22;57543;45.442;9.212;2022-08-19T11:17:16;26.00;53.72
70170;DHT22;57543;45.442;9.212;2022-08-19T11:20:20;26.04;53.92
70170;DHT22;57543;45.442;9.212;2022-08-19T11:23:24;26.31;53.55
70170;DHT22;57543;45.442;9.212;2022-08-19T11:26:29;26.78;53.06
70170;DHT22;57543;45.442;9.212;2022-08-19T11:29:35;26.90;52.93
70170;DHT22;57543;45.442;9.212;2022-08-19T11:32:40;26.57;53.89
70170;DHT22;57543;45.442;9.212;2022-08-19T11:35:44;25.98;55.52
70170;DHT22;57543;45.442;9.212;2022-08-19T11:38:49;25.92;55.74
70170;DHT22;57543;45.442;9.212;2022-08-19T11:41:53;26.53;54.56
70170;DHT22;57543;45.442;9.212;2022-08-19T11:44:57;27.07;53.41
70170;DHT22;57543;45.442;9.212;2022-08-19T11:48:01;27.37;52.52
70170;DHT22;57543;45.442;9.212;2022-08-19T11:51:43;26.84;53.00
70170;DHT22;57543;45.442;9.212;2022-08-19T11:54:46;26.49;53.85
70170;DHT22;57543;45.442;9.212;2022-08-19T11:57:50;25.83;55.76
70170;DHT22;57543;45.442;9.212;2022-08-19T12:00:54;25.83;55.90
70170;DHT22;57543;45.442;9.212;2022-08-19T12:03:58;25.82;57.52
70170;DHT22;57543;45.442;9.212;2022-08-19T12:07:01;25.94;56.82
70170;DHT22;57543;45.442;9.212;2022-08-19T12:10:07;25.49;57.35
70170;DHT22;57543;45.442;9.212;2022-08-19T12:13:12;25.55;59.07
70170;DHT22;57543;45.442;9.212;2022-08-19T12:16:25;25.62;59.64
70170;DHT22;57543;45.442;9.212;2022-08-19T12:19:30;25.90;58.28
70170;DHT22;57543;45.442;9.212;2022-08-19T12:22:34;26.27;56.95
70170;DHT22;57543;45.442;9.212;2022-08-19T12:25:44;26.20;56.73
70170;DHT22;57543;45.442;9.212;2022-08-19T12:28:53;26.55;56.82
70170;DHT22;57543;45.442;9.212;2022-08-19T12:31:58;26.97;56.02
70170;DHT22;57543;45.442;9.212;2022-08-19T12:35:06;27.49;54.52
70170;DHT22;57543;45.442;9.212;2022-08-19T12:38:11;27.90;53.03
70170;DHT22;57543;45.442;9.212;2022-08-19T12:41:16;28.17;52.06
70170;DHT22;57543;45.442;9.212;2022-08-19T12:44:22;28.17;51.14
70170;DHT22;57543;45.442;9.212;2022-08-19T12:47:25;28.35;52.06
70170;DHT22;57543;45.442;9.212;2022-08-19T12:50:30;28.69;49.26
70170;DHT22;57543;45.442;9.212;2022-08-19T12:53:34;29.13;49.74
70170;DHT22;57543;45.442;9.212;2022-08-19T12:56:38;28.73;47.92
70170;DHT22;57543;45.442;9.212;2022-08-19T12:59:41;28.87;48.65
70170;DHT22;57543;45.442;9.212;2022-08-19T13:02:47;28.75;49.35
70170;DHT22;57543;45.442;9.212;2022-08-19T13:05:53;29.02;48.90
70170;DHT22;57543;45.442;9.212;2022-08-19T13:08:57;29.28;48.47
70170;DHT22;57543;45.442;9.212;2022-08-19T13:12:01;29.13;48.87
70170;DHT22;57543;45.442;9.212;2022-08-19T13:15:07;29.15;49.04
70170;DHT22;57543;45.442;9.212;2022-08-19T13:18:12;29.38;49.30
70170;DHT22;57543;45.442;9.212;2022-08-19T13:21:15;29.54;49.08
70170;DHT22;57543;45.442;9.212;2022-08-19T13:24:19;29.45;49.19
70170;DHT22;57543;45.442;9.212;2022-08-19T13:27:23;29.52;50.02
70170;DHT22;57543;45.442;9.212;2022-08-19T13:30:27;29.73;48.86
70170;DHT22;57543;45.442;9.212;2022-08-19T13:33:49;29.59;49.11
70170;DHT22;57543;45.442;9.212;2022-08-19T13:36:52;29.35;49.34
70170;DHT22;57543;45.442;9.212;2022-08-19T13:39:56;29.34;49.83
70170;DHT22;57543;45.442;9.212;2022-08-19T13:43:01;29.11;50.51
70170;DHT22;57543;45.442;9.212;2022-08-19T13:46:10;29.15;50.43
70170;DHT22;57543;45.442;9.212;2022-08-19T13:49:17;28.90;50.85
70170;DHT22;57543;45.442;9.212;2022-08-19T13:52:21;28.77;51.08
70170;DHT22;57543;45.442;9.212;2022-08-19T13:55:25;28.92;50.97
70170;DHT22;57543;45.442;9.212;2022-08-19T13:58:30;29.00;50.74
70170;DHT22;57543;45.442;9.212;2022-08-19T14:01:34;29.35;49.99
70170;DHT22;57543;45.442;9.212;2022-08-19T14:04:38;29.77;49.76
70170;DHT22;57543;45.442;9.212;2022-08-19T14:07:42;29.87;48.49
70170;DHT22;57543;45.442;9.212;2022-08-19T14:10:46;30.13;48.03
70170;DHT22;57543;45.442;9.212;2022-08-19T14:13:50;29.97;48.53
70170;DHT22;57543;45.442;9.212;2022-08-19T14:16:54;30.07;48.14
70170;DHT22;57543;45.442;9.212;2022-08-19T14:19:59;30.21;48.04
70170;DHT22;57543;45.442;9.212;2022-08-19T14:23:09;30.31;48.72
70170;DHT22;57543;45.442;9.212;2022-08-19T14:26:15;30.35;48.02
70170;DHT22;57543;45.442;9.212;2022-08-19T14:29:18;30.34;47.66
70170;DHT22;57543;45.442;9.212;2022-08-19T14:32:21;30.16;48.27
70170;DHT22;57543;45.442;9.212;2022-08-19T14:35:27;30.09;48.68
70170;DHT22;57543;45.442;9.212;2022-08-19T14:38:32;30.07;49.43
70170;DHT22;57543;45.442;9.212;2022-08-19T14:41:36;29.97;48.06
70170;DHT22;57543;45.442;9.212;2022-08-19T14:44:40;29.99;47.33
70170;DHT22;57543;45.442;9.212;2022-08-19T14:47:44;29.77;47.62
70170;DHT22;57543;45.442;9.212;2022-08-19T14:50:47;29.58;47.96
70170;DHT22;57543;45.442;9.212;2022-08-19T14:53:53;29.55;48.46
70170;DHT22;57543;45.442;9.212;2022-08-19T14:56:57;29.38;46.35
70170;DHT22;57543;45.442;9.212;2022-08-19T15:00:02;29.31;43.78
70170;DHT22;57543;45.442;9.212;2022-08-19T15:03:06;29.22;44.56
70170;DHT22;57543;45.442;9.212;2022-08-19T15:06:09;29.02;45.38
70170;DHT22;57543;45.442;9.212;2022-08-19T15:09:13;28.73;44.33
70170;DHT22;57543;45.442;9.212;2022-08-19T15:12:17;28.73;43.96
70170;DHT22;57543;45.442;9.212;2022-08-19T15:15:20;28.68;43.06
70170;DHT22;57543;45.442;9.212;2022-08-19T15:18:25;28.60;42.59
70170;DHT22;57543;45.442;9.212;2022-08-19T15:21:29;28.45;44.23
70170;DHT22;57543;45.442;9.212;2022-08-19T15:24:33;28.24;42.69
70170;DHT22;57543;45.442;9.212;2022-08-19T15:27:39;28.24;43.00
70170;DHT22;57543;45.442;9.212;2022-08-19T15:30:43;28.28;43.92
70170;DHT22;57543;45.442;9.212;2022-08-19T15:33:46;28.24;44.07
70170;DHT22;57543;45.442;9.212;2022-08-19T15:36:51;28.07;45.13
70170;DHT22;57543;45.442;9.212;2022-08-19T15:39:55;27.94;44.60
70170;DHT22;57543;45.442;9.212;2022-08-19T15:43:00;27.94;45.09
70170;DHT22;57543;45.442;9.212;2022-08-19T15:46:03;27.94;44.44
70170;DHT22;57543;45.442;9.212;2022-08-19T15:49:09;27.96;44.82
70170;DHT22;57543;45.442;9.212;2022-08-19T15:52:13;27.98;44.89
70170;DHT22;57543;45.442;9.212;2022-08-19T15:55:23;28.07;43.96
70170;DHT22;57543;45.442;9.212;2022-08-19T15:58:26;28.20;45.13
70170;DHT22;57543;45.442;9.212;2022-08-19T16:02:02;28.35;44.68
70170;DHT22;57543;45.442;9.212;2022-08-19T16:05:35;28.38;44.66
70170;DHT22;57543;45.442;9.212;2022-08-19T16:09:02;28.41;44.16
70170;DHT22;57543;45.442;9.212;2022-08-19T16:12:06;28.48;43.69
70170;DHT22;57543;45.442;9.212;2022-08-19T16:15:11;28.52;44.11
70170;DHT22;57543;45.442;9.212;2022-08-19T16:18:17;28.58;44.04
70170;DHT22;57543;45.442;9.212;2022-08-19T16:21:22;28.40;45.75
70170;DHT22;57543;45.442;9.212;2022-08-19T16:24:27;28.40;43.96
70170;DHT22;57543;45.442;9.212;2022-08-19T16:27:30;28.41;44.54
70170;DHT22;57543;45.442;9.212;2022-08-19T16:30:36;28.37;45.90
70170;DHT22;57543;45.442;9.212;2022-08-19T16:33:40;28.34;46.66
70170;DHT22;57543;45.442;9.212;2022-08-19T16:36:43;28.27;47.03
70170;DHT22;57543;45.442;9.212;2022-08-19T16:39:47;28.15;48.06
70170;DHT22;57543;45.442;9.212;2022-08-19T16:42:50;28.07;48.23
70170;DHT22;57543;45.442;9.212;2022-08-19T16:45:56;27.97;48.82
70170;DHT22;57543;45.442;9.212;2022-08-19T16:49:00;27.97;48.98
70170;DHT22;57543;45.442;9.212;2022-08-19T16:52:04;27.89;49.23
70170;DHT22;57543;45.442;9.212;2022-08-19T16:55:08;27.63;50.23
70170;DHT22;57543;45.442;9.212;2022-08-19T16:58:11;27.73;50.05
70170;DHT22;57543;45.442;9.212;2022-08-19T17:01:16;27.58;50.47
70170;DHT22;57543;45.442;9.212;2022-08-19T17:04:20;27.44;50.61
70170;DHT22;57543;45.442;9.212;2022-08-19T17:07:27;27.37;51.30
70170;DHT22;57543;45.442;9.212;2022-08-19T17:10:32;27.33;52.17
70170;DHT22;57543;45.442;9.212;2022-08-19T17:13:37;27.30;51.28
70170;DHT22;57543;45.442;9.212;2022-08-19T17:16:40;27.21;51.67
70170;DHT22;57543;45.442;9.212;2022-08-19T17:19:44;27.28;51.51
70170;DHT22;57543;45.442;9.212;2022-08-19T17:22:47;27.20;51.71
70170;DHT22;57543;45.442;9.212;2022-08-19T17:25:52;27.25;51.49
70170;DHT22;57543;45.442;9.212;2022-08-19T17:28:56;27.27;51.62
70170;DHT22;57543;45.442;9.212;2022-08-19T17:32:01;27.25;51.75
70170;DHT22;57543;45.442;9.212;2022-08-19T17:35:05;27.27;51.60
70170;DHT22;57543;45.442;9.212;2022-08-19T17:38:13;27.21;51.74
70170;DHT22;57543;45.442;9.212;2022-08-19T17:41:17;27.20;51.64
70170;DHT22;57543;45.442;9.212;2022-08-19T17:44:21;27.23;51.90
70170;DHT22;57543;45.442;9.212;2022-08-19T17:47:29;27.21;51.17
70170;DHT22;57543;45.442;9.212;2022-08-19T17:50:34;27.17;51.36
70170;DHT22;57543;45.442;9.212;2022-08-19T17:53:38;27.12;51.39
70170;DHT22;57543;45.442;9.212;2022-08-19T17:56:42;27.03;51.46
70170;DHT22;57543;45.442;9.212;2022-08-19T17:59:47;26.97;51.99
70170;DHT22;57543;45.442;9.212;2022-08-19T18:02:56;26.97;52.28
70170;DHT22;57543;45.442;9.212;2022-08-19T18:06:00;26.97;52.43
70170;DHT22;57543;45.442;9.212;2022-08-19T18:09:04;26.94;52.90
70170;DHT22;57543;45.442;9.212;2022-08-19T18:12:11;26.84;53.28
70170;DHT22;57543;45.442;9.212;2022-08-19T18:15:15;26.75;53.78
70170;DHT22;57543;45.442;9.212;2022-08-19T18:18:19;26.72;54.09
70170;DHT22;57543;45.442;9.212;2022-08-19T18:21:24;26.56;54.39
70170;DHT22;57543;45.442;9.212;2022-08-19T18:24:37;26.57;54.51
70170;DHT22;57543;45.442;9.212;2022-08-19T18:27:40;26.56;54.79
70170;DHT22;57543;45.442;9.212;2022-08-19T18:30:45;26.55;55.05
70170;DHT22;57543;45.442;9.212;2022-08-19T18:33:49;26.45;55.44
70170;DHT22;57543;45.442;9.212;2022-08-19T18:36:54;26.46;55.58
70170;DHT22;57543;45.442;9.212;2022-08-19T18:39:58;26.41;55.95
70170;DHT22;57543;45.442;9.212;2022-08-19T18:43:20;26.38;56.12
70170;DHT22;57543;45.442;9.212;2022-08-19T18:46:29;26.37;56.27
70170;DHT22;57543;45.442;9.212;2022-08-19T18:49:52;26.34;56.55
70170;DHT22;57543;45.442;9.212;2022-08-19T18:52:56;26.34;56.85
70170;DHT22;57543;45.442;9.212;2022-08-19T18:56:00;26.21;57.25
70170;DHT22;57543;45.442;9.212;2022-08-19T18:59:03;26.10;57.77
70170;DHT22;57543;45.442;9.212;2022-08-19T19:02:08;26.07;57.96
70170;DHT22;57543;45.442;9.212;2022-08-19T19:05:13;25.89;58.48
70170;DHT22;57543;45.442;9.212;2022-08-19T19:08:17;26.03;57.97
70170;DHT22;57543;45.442;9.212;2022-08-19T19:11:24;25.76;58.74
70170;DHT22;57543;45.442;9.212;2022-08-19T19:14:31;25.72;59.01
70170;DHT22;57543;45.442;9.212;2022-08-19T19:17:35;25.79;59.06
70170;DHT22;57543;45.442;9.212;2022-08-19T19:20:39;25.75;59.20
70170;DHT22;57543;45.442;9.212;2022-08-19T19:23:43;25.75;59.39
70170;DHT22;57543;45.442;9.212;2022-08-19T19:26:49;25.70;59.57
70170;DHT22;57543;45.442;9.212;2022-08-19T19:29:53;25.49;60.23
70170;DHT22;57543;45.442;9.212;2022-08-19T19:32:58;25.49;60.31